CheckWX is a tool to help pilots better visualize weather data.  It is not intended as a substitute for an official pre-flight weather briefing.

17:32:12 UTC

UTAA TAF
Ashgabat Airport
Ashgabat, Turkmenistan
TAF UTAA 241035Z 2412/2512 13016KT 6000 SCT030 530009 TEMPO 2412/2418 10018KT TEMPO 2418/2424 20012KT BECMG 2502/2504 28016KT BKN030 SCT050CB TEMPO 2506/2512 31014G24KT PROB40 TEMPO 2509/2512 -TSRA

Mar-24@
12:00 UTC

Mar-24 @ 12:00 UTC

Mar-25@
02:00 UTC

Mar-25 @ 02:00 UTC

TAF UTAA 241035Z 2412/2512 13016KT 6000 SCT030 530009
Wind
  • 130° at 16 KTS
Cloud Levels
  • Scattered at 3,000' AGL
Turbulence
< Frequent moderate clear air turbulence expected at the surface extending to 9,000' AGL

Mar-24@
12:00 UTC

Mar-24 @ 12:00 UTC

Mar-24@
18:00 UTC

Mar-24 @ 18:00 UTC

TEMPO 2412/2418 10018KT

Temporary

Temporary Changes expected for less than half the time period

Wind
  • 100° at 18 KTS

Mar-24@
18:00 UTC

Mar-24 @ 18:00 UTC

Mar-25@
00:00 UTC

Mar-25 @ 00:00 UTC

TEMPO 2418/2424 20012KT

Temporary

Temporary Changes expected for less than half the time period

Wind
  • 200° at 12 KTS

Mar-25@
02:00 UTC

Mar-25 @ 02:00 UTC

Mar-25@
12:00 UTC

Mar-25 @ 12:00 UTC

BECMG 2502/2504 28016KT BKN030 SCT050CB

Becoming

Becoming Conditions expected by Mon, Mar 25, 2019 @ 04:00 UTC

Wind
  • 280° at 16 KTS
Cloud Levels
  • Broken at 3,000' AGL
  • Scattered at 5,000' AGL

Mar-25@
06:00 UTC

Mar-25 @ 06:00 UTC

Mar-25@
12:00 UTC

Mar-25 @ 12:00 UTC

TEMPO 2506/2512 31014G24KT

Temporary

Temporary Changes expected for less than half the time period

Wind
  • 310° at 14 KTS
  • {Gusting to 24 KTS

Mar-25@
09:00 UTC

Mar-25 @ 09:00 UTC

Mar-25@
12:00 UTC

Mar-25 @ 12:00 UTC

PROB40 TEMPO 2509/2512 -TSRA

Temporary - 40% Likelihood

Temporary - 40% Likelihood during this time.

Conditions
Light Thunderstorm, Light Rain